createdAt,value
2022-11-18T00:01:20.149Z,6.12
2022-11-18T00:03:47.414Z,6.10
2022-11-18T00:06:18.268Z,6.05
2022-11-18T00:08:45.484Z,6.02
2022-11-18T00:11:36.442Z,6.01
2022-11-18T00:14:19.767Z,5.99
2022-11-18T00:16:55.510Z,5.94
2022-11-18T00:19:26.412Z,5.91
2022-11-18T00:21:54.247Z,5.88
2022-11-18T00:24:21.194Z,5.89
2022-11-18T00:26:48.555Z,5.86
2022-11-18T00:29:16.147Z,5.87
2022-11-18T00:31:43.849Z,5.88
2022-11-18T00:34:16.297Z,5.90
2022-11-18T00:36:44.376Z,5.89
2022-11-18T00:39:13.371Z,5.86
2022-11-18T00:41:58.643Z,5.84
2022-11-18T00:44:25.673Z,5.79
2022-11-18T00:46:53.461Z,5.77
2022-11-18T00:49:20.351Z,5.77
2022-11-18T00:51:47.288Z,5.69
2022-11-18T00:54:14.217Z,5.76
2022-11-18T00:56:41.136Z,5.76
2022-11-18T00:59:08.054Z,5.73
2022-11-18T01:01:35.105Z,5.71
2022-11-18T01:04:02.043Z,5.63
2022-11-18T01:06:29.743Z,5.59
2022-11-18T01:08:56.616Z,5.58
2022-11-18T01:11:41.689Z,5.61
2022-11-18T01:14:08.579Z,5.62
2022-11-18T01:16:35.468Z,5.65
2022-11-18T01:19:02.374Z,5.67
2022-11-18T01:21:29.655Z,5.66
2022-11-18T01:23:56.522Z,5.69
2022-11-18T01:26:23.483Z,5.68
2022-11-18T01:28:50.365Z,5.68
2022-11-18T01:31:19.559Z,5.69
2022-11-18T01:33:47.051Z,5.62
2022-11-18T01:36:22.667Z,5.61
2022-11-18T01:38:50.800Z,5.56
2022-11-18T01:41:19.813Z,5.52
2022-11-18T01:43:56.829Z,5.49
2022-11-18T01:46:26.777Z,5.43
2022-11-18T01:49:06.227Z,5.41
2022-11-18T01:51:39.298Z,5.37
2022-11-18T01:54:14.047Z,5.34
2022-11-18T01:56:46.161Z,5.35
2022-11-18T01:59:18.899Z,5.33
2022-11-18T02:01:46.527Z,5.26
2022-11-18T02:04:15.047Z,5.34
2022-11-18T02:06:44.604Z,5.33
2022-11-18T02:09:12.774Z,5.32
2022-11-18T02:11:51.533Z,5.31
2022-11-18T02:14:23.886Z,5.29
2022-11-18T02:17:19.509Z,5.30
2022-11-18T02:20:18.453Z,5.32
2022-11-18T02:23:40.480Z,5.33
2022-11-18T02:26:37.645Z,5.32
2022-11-18T02:29:22.365Z,5.29
2022-11-18T02:32:13.521Z,5.27
2022-11-18T02:34:49.779Z,5.25
2022-11-18T02:37:38.971Z,5.20
2022-11-18T02:40:17.670Z,5.21
2022-11-18T02:42:50.905Z,5.20
2022-11-18T02:45:19.214Z,5.20
2022-11-18T02:47:47.896Z,5.26
2022-11-18T02:50:20.107Z,5.26
2022-11-18T02:52:50.251Z,5.26
2022-11-18T02:55:18.726Z,5.27
2022-11-18T02:57:46.398Z,5.27
2022-11-18T03:00:13.923Z,5.23
2022-11-18T03:02:46.603Z,5.30
2022-11-18T03:05:43.229Z,5.27
2022-11-18T03:08:18.458Z,5.19
2022-11-18T03:11:11.558Z,5.20
2022-11-18T03:14:04.158Z,5.16
2022-11-18T03:17:01.650Z,5.11
2022-11-18T03:19:44.372Z,5.08
2022-11-18T03:22:33.044Z,5.04
2022-11-18T03:25:28.458Z,4.98
2022-11-18T03:28:19.228Z,4.90
2022-11-18T03:31:03.217Z,4.83
2022-11-18T03:33:42.187Z,4.77
2022-11-18T03:36:12.554Z,4.73
2022-11-18T03:38:47.398Z,4.62
2022-11-18T03:41:17.518Z,4.63
2022-11-18T03:43:51.102Z,4.57
2022-11-18T03:46:33.039Z,4.52
2022-11-18T03:49:01.490Z,4.49
2022-11-18T03:51:48.483Z,4.47
2022-11-18T03:54:25.410Z,4.43
2022-11-18T03:56:59.751Z,4.33
2022-11-18T03:59:36.406Z,4.22
2022-11-18T04:02:12.161Z,4.04
2022-11-18T04:04:39.668Z,3.92
2022-11-18T04:07:34.341Z,3.84
2022-11-18T04:10:14.583Z,3.79
2022-11-18T04:12:53.323Z,3.76
2022-11-18T04:15:20.464Z,3.70
2022-11-18T04:17:47.385Z,3.65
2022-11-18T04:20:20.470Z,3.62
2022-11-18T04:22:47.843Z,3.59
2022-11-18T04:25:15.541Z,3.52
2022-11-18T04:27:42.483Z,3.49
2022-11-18T04:30:10.204Z,3.45
2022-11-18T04:32:37.100Z,3.42
2022-11-18T04:35:04.096Z,3.35
2022-11-18T04:37:30.979Z,3.32
2022-11-18T04:39:57.847Z,3.28
2022-11-18T04:42:24.728Z,3.36
2022-11-18T04:44:51.634Z,3.39
2022-11-18T04:47:18.506Z,3.42
2022-11-18T04:49:45.377Z,3.35
2022-11-18T04:52:12.362Z,3.43
2022-11-18T04:54:39.238Z,3.50
2022-11-18T04:57:06.221Z,3.52
2022-11-18T04:59:33.132Z,3.55
2022-11-18T05:02:01.044Z,3.55
2022-11-18T05:04:31.798Z,3.56
2022-11-18T05:06:59.765Z,3.50
2022-11-18T05:09:31.479Z,3.54
2022-11-18T05:12:17.494Z,3.56
2022-11-18T05:14:49.553Z,3.55
2022-11-18T05:17:17.613Z,3.49
2022-11-18T05:19:44.491Z,3.54
2022-11-18T05:22:11.394Z,3.49
2022-11-18T05:24:38.271Z,3.51
2022-11-18T05:27:05.159Z,3.52
2022-11-18T05:29:33.497Z,3.50
2022-11-18T05:32:00.396Z,3.51
2022-11-18T05:34:27.253Z,3.50
2022-11-18T05:36:54.127Z,3.50
2022-11-18T05:39:21.401Z,3.51
2022-11-18T05:42:06.863Z,3.49
2022-11-18T05:44:33.739Z,3.49
2022-11-18T05:47:00.679Z,3.45
2022-11-18T05:49:27.561Z,3.50
2022-11-18T05:51:54.440Z,3.50
2022-11-18T05:54:22.112Z,3.52
2022-11-18T05:56:49.110Z,3.52
2022-11-18T05:59:16.771Z,3.50
2022-11-18T06:01:54.220Z,3.43
2022-11-18T06:04:37.139Z,3.43
2022-11-18T06:07:10.611Z,3.35
2022-11-18T06:09:40.957Z,3.38
2022-11-18T06:12:08.710Z,3.35
2022-11-18T06:14:47.372Z,3.37
2022-11-18T06:17:32.293Z,3.30
2022-11-18T06:19:59.601Z,3.35
2022-11-18T06:22:26.934Z,3.33
2022-11-18T06:24:54.127Z,3.25
2022-11-18T06:27:21.674Z,3.31
2022-11-18T06:29:48.562Z,3.28
2022-11-18T06:32:15.458Z,3.25
2022-11-18T06:34:42.337Z,3.21
2022-11-18T06:37:17.650Z,3.25
2022-11-18T06:39:44.555Z,3.17
2022-11-18T06:42:11.604Z,3.20
2022-11-18T06:44:38.555Z,3.19
2022-11-18T06:47:05.552Z,3.18
2022-11-18T06:49:32.484Z,3.18
2022-11-18T06:51:59.354Z,3.18
2022-11-18T06:54:26.231Z,3.20
2022-11-18T06:56:53.106Z,3.18
2022-11-18T06:59:23.811Z,3.19
2022-11-18T07:01:53.042Z,3.17
2022-11-18T07:04:20.146Z,3.15
2022-11-18T07:06:47.045Z,3.13
2022-11-18T07:09:14.112Z,3.13
2022-11-18T07:11:41.403Z,3.14
2022-11-18T07:14:09.676Z,3.10
2022-11-18T07:16:37.340Z,3.16
2022-11-18T07:19:13.461Z,3.18
2022-11-18T07:21:41.415Z,3.20
2022-11-18T07:24:09.762Z,3.23
2022-11-18T07:26:37.179Z,3.27
2022-11-18T07:29:04.178Z,3.30
2022-11-18T07:31:32.045Z,3.33
2022-11-18T07:33:59.031Z,3.37
2022-11-18T07:36:33.972Z,3.40
2022-11-18T07:39:05.710Z,3.43
2022-11-18T07:41:33.649Z,3.45
2022-11-18T07:44:02.579Z,3.48
2022-11-18T07:46:37.858Z,3.48
2022-11-18T07:49:07.641Z,3.55
2022-11-18T07:51:37.371Z,3.55
2022-11-18T07:54:11.149Z,3.59
2022-11-18T07:56:38.109Z,3.58
2022-11-18T07:59:05.498Z,3.68
2022-11-18T08:01:32.662Z,3.71
2022-11-18T08:04:07.505Z,3.75
2022-11-18T08:06:35.577Z,3.75
2022-11-18T08:09:03.473Z,3.82
2022-11-18T08:11:30.364Z,3.85
2022-11-18T08:13:57.241Z,3.87
2022-11-18T08:16:25.929Z,3.86
2022-11-18T08:18:53.535Z,3.90
2022-11-18T08:21:22.416Z,3.90
2022-11-18T08:23:57.381Z,3.91
2022-11-18T08:26:25.304Z,3.96
2022-11-18T08:28:52.814Z,4.01
2022-11-18T08:31:26.814Z,4.04
2022-11-18T08:34:06.845Z,4.08
2022-11-18T08:36:37.033Z,4.13
2022-11-18T08:39:08.439Z,4.15
2022-11-18T08:41:39.072Z,4.16
2022-11-18T08:44:12.414Z,4.18
2022-11-18T08:46:39.595Z,4.21
2022-11-18T08:49:06.604Z,4.22
2022-11-18T08:51:33.548Z,4.25
2022-11-18T08:54:00.430Z,4.31
2022-11-18T08:56:27.651Z,4.32
2022-11-18T08:58:54.873Z,4.41
2022-11-18T09:01:22.439Z,4.44
2022-11-18T09:03:49.767Z,4.46
2022-11-18T09:06:20.505Z,4.55
2022-11-18T09:08:47.909Z,4.59
2022-11-18T09:11:24.354Z,4.63
2022-11-18T09:16:44.559Z,4.70
2022-11-18T09:19:46.141Z,4.72
2022-11-18T09:21:58.913Z,4.73
2022-11-18T09:24:25.850Z,4.74
2022-11-18T09:26:53.886Z,4.80
2022-11-18T09:29:25.300Z,4.82
2022-11-18T09:31:53.815Z,4.78
2022-11-18T09:34:21.408Z,4.86
2022-11-18T09:36:48.386Z,4.92
2022-11-18T09:39:15.450Z,4.97
2022-11-18T09:42:27.920Z,4.98
2022-11-18T09:45:11.824Z,5.03
2022-11-18T09:47:40.322Z,5.06
2022-11-18T09:50:41.814Z,5.11
2022-11-18T09:53:26.269Z,5.04
2022-11-18T09:55:54.587Z,5.19
2022-11-18T09:58:35.584Z,5.24
2022-11-18T10:01:03.290Z,5.32
2022-11-18T10:03:33.115Z,5.35
2022-11-18T10:06:26.342Z,5.44
2022-11-18T10:09:20.939Z,5.50
2022-11-18T10:12:12.501Z,5.56
2022-11-18T10:15:15.553Z,5.63
2022-11-18T10:18:45.120Z,5.69
2022-11-18T10:21:28.570Z,5.73
2022-11-18T10:24:09.057Z,5.75
2022-11-18T10:26:41.456Z,5.81
2022-11-18T10:29:10.851Z,5.86
2022-11-18T10:31:40.230Z,5.92
2022-11-18T10:34:13.143Z,5.93
2022-11-18T10:36:40.528Z,6.04
2022-11-18T10:39:14.403Z,6.09
2022-11-18T10:41:49.663Z,6.15
2022-11-18T10:44:40.580Z,6.21
2022-11-18T10:47:33.791Z,6.22
2022-11-18T10:50:35.368Z,6.32
2022-11-18T10:53:02.594Z,6.37
2022-11-18T10:55:30.665Z,6.40
2022-11-18T10:58:03.949Z,6.43
2022-11-18T11:00:38.809Z,6.48
2022-11-18T11:03:25.320Z,6.53
2022-11-18T11:06:29.745Z,6.56
2022-11-18T11:09:02.535Z,6.60
2022-11-18T11:11:39.808Z,6.64
2022-11-18T11:14:32.986Z,6.65
2022-11-18T11:17:10.170Z,6.67
2022-11-18T11:19:57.035Z,6.64
2022-11-18T11:22:23.935Z,6.71
2022-11-18T11:24:50.881Z,6.77
2022-11-18T11:30:23.144Z,6.76
2022-11-18T11:33:11.348Z,6.80
2022-11-18T11:36:14.671Z,6.81
2022-11-18T11:39:05.273Z,6.83
2022-11-18T11:42:13.605Z,6.89
2022-11-18T11:44:49.893Z,6.97
2022-11-18T11:47:49.911Z,7.03
2022-11-18T11:51:05.122Z,7.07
2022-11-18T11:54:05.627Z,7.10
2022-11-18T11:56:45.074Z,7.11
2022-11-18T11:59:27.983Z,7.13
2022-11-18T12:02:26.712Z,7.18
2022-11-18T12:05:23.327Z,7.22
2022-11-18T12:08:01.504Z,7.22
2022-11-18T12:10:49.903Z,7.32
2022-11-18T12:13:53.387Z,7.36
2022-11-18T12:16:50.942Z,7.38
2022-11-18T12:19:23.373Z,7.38
2022-11-18T12:21:50.115Z,7.43
2022-11-18T12:24:32.086Z,7.45
2022-11-18T12:27:23.415Z,7.48
2022-11-18T12:29:52.849Z,7.50
2022-11-18T12:32:30.680Z,7.53
2022-11-18T12:35:13.850Z,7.57
2022-11-18T12:37:52.657Z,7.58
2022-11-18T12:40:50.508Z,7.57
2022-11-18T12:43:45.133Z,7.58
2022-11-18T12:46:27.281Z,7.53
2022-11-18T12:48:54.155Z,7.51
2022-11-18T12:51:20.923Z,7.49
2022-11-18T12:53:53.045Z,7.49
2022-11-18T12:56:24.357Z,7.50
2022-11-18T12:59:00.677Z,7.52
2022-11-18T13:01:36.779Z,7.51
2022-11-18T13:04:17.697Z,7.49
2022-11-18T13:06:44.991Z,7.50
2022-11-18T13:09:19.633Z,7.46
2022-11-18T13:11:54.382Z,7.45
2022-11-18T13:14:47.803Z,7.55
2022-11-18T13:17:52.275Z,7.55
2022-11-18T13:20:39.066Z,7.53
2022-11-18T13:23:33.446Z,7.50
2022-11-18T13:26:28.614Z,7.48
2022-11-18T13:29:26.938Z,7.50
2022-11-18T13:32:13.492Z,7.53
2022-11-18T13:34:48.630Z,7.50
2022-11-18T13:37:23.201Z,7.45
2022-11-18T13:39:50.648Z,7.50
2022-11-18T13:42:28.054Z,7.45
2022-11-18T13:44:57.547Z,7.53
2022-11-18T13:47:36.063Z,7.56
2022-11-18T13:50:35.521Z,7.58
2022-11-18T13:53:19.390Z,7.60
2022-11-18T13:56:03.461Z,7.61
2022-11-18T13:59:18.012Z,7.58
2022-11-18T14:01:46.337Z,7.55
2022-11-18T14:04:30.565Z,7.52
2022-11-18T14:07:34.169Z,7.45
2022-11-18T14:10:08.132Z,7.42
2022-11-18T14:12:36.520Z,7.41
2022-11-18T14:15:43.356Z,7.38
2022-11-18T14:18:31.251Z,7.33
2022-11-18T14:20:59.325Z,7.28
2022-11-18T14:23:35.379Z,7.26
2022-11-18T14:26:05.703Z,7.25
2022-11-18T14:28:37.856Z,7.25
2022-11-18T14:31:09.892Z,7.22
2022-11-18T14:33:38.279Z,7.14
2022-11-18T14:36:16.040Z,7.16
2022-11-18T14:41:47.415Z,7.08
2022-11-18T14:44:15.011Z,7.03
2022-11-18T14:46:45.613Z,6.99
2022-11-18T14:49:22.292Z,6.97
2022-11-18T14:51:51.523Z,6.93
2022-11-18T14:54:26.314Z,6.89
2022-11-18T14:57:01.323Z,6.83
2022-11-18T14:59:28.557Z,6.82
2022-11-18T15:01:56.414Z,6.74
2022-11-18T15:04:23.667Z,6.74
2022-11-18T15:06:50.535Z,6.71
2022-11-18T15:09:17.410Z,6.68
2022-11-18T15:11:44.761Z,6.69
2022-11-18T15:14:11.675Z,6.69
2022-11-18T15:16:38.583Z,6.64
2022-11-18T15:19:11.213Z,6.60
2022-11-18T15:21:38.095Z,6.45
2022-11-18T15:24:05.260Z,6.54
2022-11-18T15:26:38.589Z,6.51
2022-11-18T15:29:05.826Z,6.44
2022-11-18T15:31:32.865Z,6.41
2022-11-18T15:34:05.076Z,6.38
2022-11-18T15:36:33.662Z,6.37
2022-11-18T15:39:00.533Z,6.37
2022-11-18T15:41:29.561Z,6.30
2022-11-18T15:43:59.440Z,6.19
2022-11-18T15:46:28.107Z,6.12
2022-11-18T15:48:56.825Z,6.04
2022-11-18T15:51:26.028Z,6.08
2022-11-18T15:53:53.244Z,6.05
2022-11-18T15:56:25.010Z,6.04
2022-11-18T15:59:15.129Z,6.03
2022-11-18T16:01:49.021Z,6.03
2022-11-18T16:04:19.165Z,6.01
2022-11-18T16:06:46.427Z,6.01
2022-11-18T16:09:15.102Z,5.99
2022-11-18T16:12:01.098Z,5.99
2022-11-18T16:14:28.227Z,5.93
2022-11-18T16:16:56.616Z,5.89
2022-11-18T16:19:26.158Z,5.81
2022-11-18T16:21:56.733Z,5.81
2022-11-18T16:24:28.684Z,5.76
2022-11-18T16:26:56.259Z,5.74
2022-11-18T16:29:24.064Z,5.65
2022-11-18T16:31:52.656Z,5.65
2022-11-18T16:34:28.161Z,5.59
2022-11-18T16:36:57.749Z,5.50
2022-11-18T16:39:27.352Z,5.54
2022-11-18T16:42:07.475Z,5.52
2022-11-18T16:44:36.543Z,5.46
2022-11-18T16:47:10.781Z,5.46
2022-11-18T16:49:41.289Z,5.44
2022-11-18T16:52:08.925Z,5.41
2022-11-18T16:54:41.041Z,5.38
2022-11-18T16:57:11.479Z,5.36
2022-11-18T16:59:38.376Z,5.30
2022-11-18T17:02:05.740Z,5.27
2022-11-18T17:04:35.301Z,5.24
2022-11-18T17:07:03.114Z,5.15
2022-11-18T17:09:30.046Z,5.15
2022-11-18T17:11:58.620Z,5.12
2022-11-18T17:14:26.001Z,5.10
2022-11-18T17:16:53.539Z,5.03
2022-11-18T17:19:22.968Z,5.07
2022-11-18T17:21:51.627Z,5.04
2022-11-18T17:24:22.083Z,5.02
2022-11-18T17:26:50.123Z,4.96
2022-11-18T17:29:17.474Z,4.96
2022-11-18T17:31:44.869Z,4.93
2022-11-18T17:34:14.135Z,4.89
2022-11-18T17:36:42.065Z,4.85
2022-11-18T17:39:11.184Z,4.82
2022-11-18T17:41:57.278Z,4.72
2022-11-18T17:44:24.647Z,4.70
2022-11-18T17:46:51.898Z,4.69
2022-11-18T17:49:19.379Z,4.64
2022-11-18T17:51:46.320Z,4.60
2022-11-18T17:54:14.368Z,4.57
2022-11-18T17:56:41.674Z,4.51
2022-11-18T17:59:08.869Z,4.48
2022-11-18T18:01:35.936Z,4.44
2022-11-18T18:04:13.812Z,4.41
2022-11-18T18:06:42.743Z,4.26
2022-11-18T18:09:10.177Z,4.33
2022-11-18T18:11:37.441Z,4.31
2022-11-18T18:14:13.742Z,4.26
2022-11-18T18:16:46.744Z,4.23
2022-11-18T18:19:20.072Z,4.15
2022-11-18T18:21:47.362Z,4.10
2022-11-18T18:24:17.248Z,4.07
2022-11-18T18:26:44.503Z,4.06
2022-11-18T18:29:12.197Z,4.04
2022-11-18T18:31:39.310Z,4.02
2022-11-18T18:34:06.345Z,3.90
2022-11-18T18:36:33.886Z,3.94
2022-11-18T18:39:02.152Z,3.92
2022-11-18T18:41:29.072Z,3.91
2022-11-18T18:43:56.650Z,3.90
2022-11-18T18:46:29.459Z,3.89
2022-11-18T18:49:13.311Z,3.88
2022-11-18T18:51:46.216Z,3.86
2022-11-18T18:54:18.536Z,3.85
2022-11-18T18:56:45.705Z,3.82
2022-11-18T18:59:12.615Z,3.80
2022-11-18T19:01:39.729Z,3.77
2022-11-18T19:04:07.979Z,3.74
2022-11-18T19:09:25.446Z,3.70
2022-11-18T19:12:12.192Z,3.60
2022-11-18T19:14:39.497Z,3.60
2022-11-18T19:17:11.348Z,3.57
2022-11-18T19:19:59.539Z,3.55
2022-11-18T19:22:30.959Z,3.52
2022-11-18T19:24:58.946Z,3.47
2022-11-18T19:27:26.403Z,3.45
2022-11-18T19:29:53.506Z,3.40
2022-11-18T19:32:21.044Z,3.39
2022-11-18T19:34:47.959Z,3.37
2022-11-18T19:37:14.878Z,3.33
2022-11-18T19:39:41.743Z,3.31
2022-11-18T19:42:10.778Z,3.22
2022-11-18T19:44:39.577Z,3.17
2022-11-18T19:47:06.581Z,3.20
2022-11-18T19:49:33.460Z,3.19
2022-11-18T19:52:00.340Z,3.15
2022-11-18T19:54:27.193Z,3.15
2022-11-18T19:56:54.066Z,3.12
2022-11-18T19:59:21.224Z,3.08
2022-11-18T20:01:48.589Z,3.05
2022-11-18T20:04:15.469Z,3.02
2022-11-18T20:06:42.442Z,3.01
2022-11-18T20:09:11.017Z,2.98
2022-11-18T20:11:38.488Z,2.96
2022-11-18T20:14:06.549Z,2.94
2022-11-18T20:16:33.700Z,2.90
2022-11-18T20:19:08.027Z,2.86
2022-11-18T20:21:39.003Z,2.80
2022-11-18T20:24:08.072Z,2.79
2022-11-18T20:26:38.111Z,2.77
2022-11-18T20:29:07.549Z,2.73
2022-11-18T20:31:35.934Z,2.63
2022-11-18T20:34:04.007Z,2.54
2022-11-18T20:36:33.999Z,2.60
2022-11-18T20:39:04.969Z,2.58
2022-11-18T20:41:32.605Z,2.54
2022-11-18T20:44:00.717Z,2.52
2022-11-18T20:46:27.913Z,2.43
2022-11-18T20:48:55.639Z,2.40
2022-11-18T20:51:26.475Z,2.46
2022-11-18T20:53:55.169Z,2.45
2022-11-18T20:56:27.065Z,2.40
2022-11-18T20:58:56.085Z,2.37
2022-11-18T21:01:27.482Z,2.35
2022-11-18T21:04:00.050Z,2.31
2022-11-18T21:06:29.924Z,2.29
2022-11-18T21:09:03.833Z,2.25
2022-11-18T21:11:33.781Z,2.22
2022-11-18T21:14:24.455Z,2.17
2022-11-18T21:17:00.851Z,2.16
2022-11-18T21:19:28.985Z,2.12
2022-11-18T21:21:56.886Z,2.11
2022-11-18T21:24:30.986Z,2.09
2022-11-18T21:26:59.793Z,2.06
2022-11-18T21:29:30.114Z,2.04
2022-11-18T21:31:59.206Z,2.02
2022-11-18T21:34:26.194Z,1.99
2022-11-18T21:36:55.199Z,1.96
2022-11-18T21:39:24.451Z,1.95
2022-11-18T21:41:55.727Z,1.82
2022-11-18T21:44:24.564Z,1.77
2022-11-18T21:46:51.867Z,1.87
2022-11-18T21:49:19.173Z,1.81
2022-11-18T21:51:46.359Z,1.79
2022-11-18T21:54:15.718Z,1.74
2022-11-18T21:56:42.684Z,1.73
2022-11-18T21:59:09.544Z,1.65
2022-11-18T22:01:36.439Z,1.70
2022-11-18T22:04:05.098Z,1.66
2022-11-18T22:06:34.332Z,1.65
2022-11-18T22:09:02.999Z,1.62
2022-11-18T22:11:30.027Z,1.60
2022-11-18T22:13:57.132Z,1.57
2022-11-18T22:16:25.287Z,1.50
2022-11-18T22:18:59.970Z,1.55
2022-11-18T22:21:29.415Z,1.52
2022-11-18T22:24:01.016Z,1.49
2022-11-18T22:26:28.875Z,1.48
2022-11-18T22:28:57.560Z,1.47
2022-11-18T22:31:26.535Z,1.45
2022-11-18T22:33:54.430Z,1.41
2022-11-18T22:36:23.737Z,1.39
2022-11-18T22:38:50.628Z,1.36
2022-11-18T22:41:45.438Z,1.33
2022-11-18T22:44:14.952Z,1.22
2022-11-18T22:46:44.046Z,1.22
2022-11-18T22:49:12.204Z,1.21
2022-11-18T22:51:40.274Z,1.20
2022-11-18T22:56:55.121Z,1.18
2022-11-18T22:59:22.646Z,1.17
2022-11-18T23:01:51.998Z,1.14
2022-11-18T23:04:19.158Z,1.15
2022-11-18T23:06:46.065Z,1.12
2022-11-18T23:09:12.956Z,1.12
2022-11-18T23:11:58.059Z,1.10
2022-11-18T23:14:24.937Z,1.08
2022-11-18T23:16:51.827Z,1.01
2022-11-18T23:19:19.225Z,1.02
2022-11-18T23:21:46.347Z,1.01
2022-11-18T23:24:15.390Z,0.97
2022-11-18T23:26:42.701Z,0.96
2022-11-18T23:29:11.116Z,0.89
2022-11-18T23:31:42.897Z,0.91
2022-11-18T23:34:15.065Z,0.87
2022-11-18T23:36:42.638Z,0.85
2022-11-18T23:39:09.846Z,0.83
2022-11-18T23:41:36.957Z,0.81
2022-11-18T23:44:04.939Z,0.80
2022-11-18T23:46:32.466Z,0.78
2022-11-18T23:48:59.449Z,0.75
2022-11-18T23:51:26.707Z,0.71
2022-11-18T23:53:57.369Z,0.74
2022-11-18T23:56:26.723Z,0.73
2022-11-18T23:58:56.271Z,0.73
